createdAt,value
2022-09-16T00:01:58.554Z,13.70
2022-09-16T00:05:09.541Z,13.60
2022-09-16T00:08:19.017Z,13.60
2022-09-16T00:11:28.028Z,13.50
2022-09-16T00:14:36.416Z,13.50
2022-09-16T00:17:44.857Z,13.50
2022-09-16T00:20:55.027Z,13.50
2022-09-16T00:24:03.855Z,13.50
2022-09-16T00:27:12.247Z,13.50
2022-09-16T00:30:21.109Z,13.50
2022-09-16T00:33:29.978Z,13.50
2022-09-16T00:36:39.752Z,13.50
2022-09-16T00:39:49.665Z,13.50
2022-09-16T00:43:00.206Z,13.50
2022-09-16T00:46:08.648Z,13.40
2022-09-16T00:49:21.016Z,13.40
2022-09-16T00:52:33.729Z,13.40
2022-09-16T00:55:43.593Z,13.50
2022-09-16T00:58:56.330Z,13.50
2022-09-16T01:02:09.447Z,13.50
2022-09-16T01:05:21.731Z,13.60
2022-09-16T01:08:31.716Z,13.60
2022-09-16T01:11:40.134Z,13.70
2022-09-16T01:14:54.762Z,13.70
2022-09-16T01:18:14.456Z,13.70
2022-09-16T01:21:40.223Z,13.80
2022-09-16T01:25:00.184Z,13.80
2022-09-16T01:28:31.265Z,13.80
2022-09-16T01:31:46.387Z,13.90
2022-09-16T01:35:04.978Z,13.90
2022-09-16T01:38:27.423Z,13.90
2022-09-16T01:41:48.354Z,13.90
2022-09-16T01:45:04.570Z,13.90
2022-09-16T01:48:19.622Z,13.90
2022-09-16T01:51:32.943Z,13.90
2022-09-16T01:54:46.531Z,13.80
2022-09-16T01:57:58.675Z,13.80
2022-09-16T02:01:13.987Z,13.70
2022-09-16T02:04:29.537Z,13.70
2022-09-16T02:07:41.984Z,13.70
2022-09-16T02:10:57.543Z,13.70
2022-09-16T02:14:10.467Z,13.70
2022-09-16T02:17:22.333Z,13.70
2022-09-16T02:20:33.876Z,13.70
2022-09-16T02:23:46.653Z,13.70
2022-09-16T02:27:00.892Z,13.70
2022-09-16T02:30:13.450Z,13.70
2022-09-16T02:33:24.188Z,13.70
2022-09-16T02:36:35.357Z,13.70
2022-09-16T02:39:49.493Z,13.60
2022-09-16T02:42:59.581Z,13.60
2022-09-16T02:46:16.503Z,13.60
2022-09-16T02:49:29.235Z,13.60
2022-09-16T02:52:45.428Z,13.60
2022-09-16T02:55:58.958Z,13.60
2022-09-16T02:59:09.939Z,13.60
2022-09-16T03:02:18.670Z,13.50
2022-09-16T03:05:29.747Z,13.50
2022-09-16T03:08:41.049Z,13.50
2022-09-16T03:12:08.860Z,13.50
2022-09-16T03:15:33.115Z,13.60
2022-09-16T03:18:58.364Z,13.60
2022-09-16T03:22:17.049Z,13.60
2022-09-16T03:25:39.622Z,13.60
2022-09-16T03:28:56.059Z,13.60
2022-09-16T03:32:12.930Z,13.60
2022-09-16T03:35:27.793Z,13.70
2022-09-16T03:38:38.177Z,13.60
2022-09-16T03:41:48.127Z,13.70
2022-09-16T03:44:57.423Z,13.60
2022-09-16T03:48:06.181Z,13.60
2022-09-16T03:51:14.578Z,13.60
2022-09-16T03:54:23.037Z,13.60
2022-09-16T03:57:33.198Z,13.60
2022-09-16T04:00:41.669Z,13.50
2022-09-16T04:03:50.053Z,13.50
2022-09-16T04:06:58.498Z,13.40
2022-09-16T04:10:08.231Z,13.30
2022-09-16T04:13:18.003Z,13.30
2022-09-16T04:16:27.591Z,13.10
2022-09-16T04:19:36.144Z,13.00
2022-09-16T04:22:44.512Z,13.00
2022-09-16T04:25:56.221Z,12.90
2022-09-16T04:29:09.936Z,12.80
2022-09-16T04:32:18.303Z,12.70
2022-09-16T04:35:26.820Z,12.70
2022-09-16T04:38:35.366Z,12.60
2022-09-16T04:41:43.764Z,12.60
2022-09-16T04:44:53.616Z,12.50
2022-09-16T04:48:02.006Z,12.50
2022-09-16T04:51:12.789Z,12.40
2022-09-16T04:54:21.371Z,12.30
2022-09-16T04:57:32.030Z,12.30
2022-09-16T05:00:42.269Z,12.30
2022-09-16T05:03:51.840Z,12.30
2022-09-16T05:07:00.280Z,12.30
2022-09-16T05:10:09.508Z,12.40
2022-09-16T05:13:17.966Z,12.40
2022-09-16T05:16:28.507Z,12.50
2022-09-16T05:19:37.015Z,12.50
2022-09-16T05:22:45.411Z,12.50
2022-09-16T05:25:54.193Z,12.50
2022-09-16T05:29:03.912Z,12.60
2022-09-16T05:32:13.797Z,12.60
2022-09-16T05:35:22.190Z,12.60
2022-09-16T05:38:30.616Z,12.70
2022-09-16T05:41:39.065Z,12.70
2022-09-16T05:44:47.468Z,12.80
2022-09-16T05:47:57.366Z,12.80
2022-09-16T05:51:07.336Z,12.90
2022-09-16T05:54:18.411Z,12.90
2022-09-16T05:57:26.988Z,13.00
2022-09-16T06:00:35.337Z,13.00
2022-09-16T06:03:49.078Z,13.10
2022-09-16T06:06:57.505Z,13.20
2022-09-16T06:10:06.778Z,13.20
2022-09-16T06:13:15.246Z,13.20
2022-09-16T06:16:25.838Z,13.30
2022-09-16T06:19:35.625Z,13.40
2022-09-16T06:22:43.997Z,13.50
2022-09-16T06:26:01.326Z,13.60
2022-09-16T06:29:10.633Z,13.80
2022-09-16T06:32:18.982Z,13.90
2022-09-16T06:35:29.111Z,14.30
2022-09-16T06:38:37.956Z,15.10
2022-09-16T06:41:46.701Z,15.40
2022-09-16T06:44:55.086Z,15.40
2022-09-16T06:48:03.925Z,15.40
2022-09-16T06:51:17.700Z,15.40
2022-09-16T06:54:26.114Z,15.50
2022-09-16T06:57:34.498Z,15.70
2022-09-16T07:00:43.557Z,15.90
2022-09-16T07:03:53.400Z,16.30
2022-09-16T07:07:09.653Z,17.00
2022-09-16T07:10:18.846Z,19.00
2022-09-16T07:13:27.849Z,21.30
2022-09-16T07:16:36.398Z,24.50
2022-09-16T07:19:44.905Z,24.20
2022-09-16T07:22:54.784Z,27.30
2022-09-16T07:26:04.783Z,29.10
2022-09-16T07:29:15.039Z,29.60
2022-09-16T07:32:23.417Z,31.10
2022-09-16T07:35:31.845Z,31.10
2022-09-16T07:38:41.710Z,32.00
2022-09-16T07:41:50.320Z,31.90
2022-09-16T07:44:58.737Z,32.70
2022-09-16T07:48:07.135Z,32.70
2022-09-16T07:51:18.028Z,32.10
2022-09-16T07:54:27.996Z,32.00
2022-09-16T07:57:36.382Z,32.30
2022-09-16T08:00:45.201Z,32.90
2022-09-16T08:03:54.332Z,32.20
2022-09-16T08:07:02.743Z,32.40
2022-09-16T08:10:12.784Z,32.90
2022-09-16T08:13:21.195Z,32.60
2022-09-16T08:16:29.928Z,30.50
2022-09-16T08:19:40.248Z,29.30
2022-09-16T08:22:48.649Z,28.00
2022-09-16T08:26:01.752Z,28.00
2022-09-16T08:29:10.634Z,27.70
2022-09-16T08:32:19.256Z,27.60
2022-09-16T08:35:27.769Z,27.60
2022-09-16T08:38:36.718Z,27.90
2022-09-16T08:42:14.520Z,28.10
2022-09-16T08:45:28.846Z,28.00
2022-09-16T08:48:48.494Z,28.40
2022-09-16T08:51:58.306Z,29.10
2022-09-16T08:55:11.751Z,28.90
2022-09-16T08:58:24.257Z,28.30
2022-09-16T09:01:43.288Z,27.70
2022-09-16T09:04:51.983Z,26.60
2022-09-16T09:08:18.789Z,25.80
2022-09-16T09:11:36.102Z,25.00
2022-09-16T09:15:01.933Z,24.60
2022-09-16T09:18:25.232Z,24.40
2022-09-16T09:21:42.690Z,24.80
2022-09-16T09:25:24.012Z,24.80
2022-09-16T09:28:58.258Z,24.20
2022-09-16T09:32:21.112Z,24.60
2022-09-16T09:35:47.309Z,24.70
2022-09-16T09:39:09.045Z,24.90
2022-09-16T09:42:22.839Z,25.20
2022-09-16T09:45:34.418Z,24.70
2022-09-16T09:48:48.937Z,24.10
2022-09-16T09:52:02.786Z,23.70
2022-09-16T09:55:17.396Z,23.40
2022-09-16T09:58:35.049Z,23.40
2022-09-16T10:01:43.798Z,23.40
2022-09-16T10:04:53.962Z,23.40
2022-09-16T10:08:06.078Z,23.40
2022-09-16T10:11:19.580Z,23.50
2022-09-16T10:14:31.927Z,23.40
2022-09-16T10:17:40.454Z,23.30
2022-09-16T10:21:05.802Z,23.20
2022-09-16T10:24:33.332Z,23.00
2022-09-16T10:27:41.761Z,23.00
2022-09-16T10:30:52.760Z,22.80
2022-09-16T10:34:02.798Z,22.70
2022-09-16T10:37:19.587Z,22.70
2022-09-16T10:40:28.797Z,22.70
2022-09-16T10:43:40.135Z,22.50
2022-09-16T10:46:55.556Z,22.60
2022-09-16T10:50:06.708Z,22.30
2022-09-16T10:53:39.185Z,22.40
2022-09-16T10:56:51.712Z,22.10
2022-09-16T11:00:23.013Z,22.10
2022-09-16T11:04:03.722Z,22.10
2022-09-16T11:07:23.745Z,22.10
2022-09-16T11:10:40.591Z,22.00
2022-09-16T11:13:55.762Z,21.90
2022-09-16T11:17:17.019Z,21.60
2022-09-16T11:20:50.205Z,21.40
2022-09-16T11:24:30.015Z,21.60
2022-09-16T11:27:47.142Z,22.10
2022-09-16T11:31:04.735Z,22.40
2022-09-16T11:34:26.286Z,22.10
2022-09-16T11:37:44.661Z,21.60
2022-09-16T11:41:01.352Z,21.40
2022-09-16T11:44:30.921Z,21.30
2022-09-16T11:47:54.647Z,21.30
2022-09-16T11:51:09.823Z,20.90
2022-09-16T11:54:38.425Z,20.80
2022-09-16T11:57:53.556Z,20.90
2022-09-16T12:01:14.319Z,20.70
2022-09-16T12:04:27.721Z,20.80
2022-09-16T12:07:40.978Z,20.80
2022-09-16T12:10:53.406Z,20.80
2022-09-16T12:14:09.554Z,20.60
2022-09-16T12:17:22.834Z,20.70
2022-09-16T12:20:36.261Z,20.60
2022-09-16T12:23:49.998Z,20.60
2022-09-16T12:27:04.474Z,20.50
2022-09-16T12:30:18.690Z,20.50
2022-09-16T12:33:34.196Z,20.70
2022-09-16T12:36:48.809Z,20.70
2022-09-16T12:39:57.375Z,20.50
2022-09-16T12:43:45.785Z,20.30
2022-09-16T12:47:28.636Z,20.30
2022-09-16T12:51:01.450Z,20.40
2022-09-16T12:54:28.462Z,20.30
2022-09-16T12:57:52.452Z,20.20
2022-09-16T13:01:11.994Z,20.10
2022-09-16T13:04:23.328Z,20.40
2022-09-16T13:07:36.771Z,20.60
2022-09-16T13:10:57.751Z,20.50
2022-09-16T13:14:24.456Z,20.30
2022-09-16T13:17:35.304Z,20.30
2022-09-16T13:20:50.764Z,20.10
2022-09-16T13:24:05.331Z,19.80
2022-09-16T13:27:32.735Z,19.80
2022-09-16T13:30:41.507Z,19.80
2022-09-16T13:34:03.092Z,19.70
2022-09-16T13:37:16.692Z,19.80
2022-09-16T13:40:28.804Z,19.80
2022-09-16T13:43:39.188Z,19.80
2022-09-16T13:46:47.645Z,19.80
2022-09-16T13:49:58.849Z,19.90
2022-09-16T13:53:11.543Z,19.90
2022-09-16T13:56:44.975Z,19.90
2022-09-16T14:00:14.861Z,19.70
2022-09-16T14:03:38.326Z,19.70
2022-09-16T14:06:56.897Z,19.80
2022-09-16T14:10:11.262Z,19.70
2022-09-16T14:13:27.927Z,19.50
2022-09-16T14:16:40.184Z,19.30
2022-09-16T14:19:52.282Z,19.50
2022-09-16T14:23:05.287Z,19.50
2022-09-16T14:26:14.739Z,19.50
2022-09-16T14:29:27.245Z,19.40
2022-09-16T14:32:39.514Z,19.40
2022-09-16T14:35:50.627Z,19.30
2022-09-16T14:39:02.166Z,19.20
2022-09-16T14:42:18.861Z,19.10
2022-09-16T14:45:30.356Z,19.00
2022-09-16T14:48:41.970Z,19.00
2022-09-16T14:51:53.320Z,19.00
2022-09-16T14:55:01.726Z,18.90
2022-09-16T14:58:12.104Z,18.80
2022-09-16T15:01:26.338Z,18.80
2022-09-16T15:04:39.828Z,18.70
2022-09-16T15:08:12.117Z,18.60
2022-09-16T15:11:46.082Z,18.60
2022-09-16T15:14:49.467Z,18.60
2022-09-16T15:18:02.186Z,18.60
2022-09-16T15:21:13.764Z,18.50
2022-09-16T15:24:26.042Z,18.40
2022-09-16T15:27:34.492Z,18.40
2022-09-16T15:30:48.875Z,18.30
2022-09-16T15:33:59.631Z,18.30
2022-09-16T15:37:32.016Z,18.20
2022-09-16T15:40:41.133Z,18.20
2022-09-16T15:43:49.924Z,18.10
2022-09-16T15:46:58.989Z,18.10
2022-09-16T15:50:13.483Z,18.00
2022-09-16T15:53:36.909Z,18.00
2022-09-16T15:56:58.985Z,18.10
2022-09-16T16:00:12.843Z,18.10
2022-09-16T16:03:24.159Z,17.90
2022-09-16T16:06:53.092Z,17.90
2022-09-16T16:10:14.943Z,17.90
2022-09-16T16:13:23.641Z,17.90
2022-09-16T16:16:32.803Z,17.80
2022-09-16T16:19:41.536Z,17.90
2022-09-16T16:22:53.215Z,17.80
2022-09-16T16:26:02.530Z,17.80
2022-09-16T16:29:10.947Z,17.70
2022-09-16T16:32:19.389Z,17.70
2022-09-16T16:35:27.880Z,17.90
2022-09-16T16:38:37.701Z,18.50
2022-09-16T16:41:46.165Z,18.60
2022-09-16T16:44:54.582Z,18.70
2022-09-16T16:48:03.345Z,18.10
2022-09-16T16:51:13.248Z,18.00
2022-09-16T16:54:23.380Z,17.70
2022-09-16T16:57:32.118Z,17.50
2022-09-16T17:00:40.500Z,17.40
2022-09-16T17:03:50.377Z,17.30
2022-09-16T17:07:24.059Z,17.20
2022-09-16T17:10:28.798Z,17.10
2022-09-16T17:13:37.827Z,17.00
2022-09-16T17:16:47.194Z,17.00
2022-09-16T17:19:55.686Z,16.90
2022-09-16T17:23:04.135Z,16.80
2022-09-16T17:26:14.533Z,16.70
2022-09-16T17:29:22.946Z,16.60
2022-09-16T17:32:31.309Z,16.60
2022-09-16T17:35:40.082Z,16.50
2022-09-16T17:38:49.248Z,16.40
2022-09-16T17:42:00.047Z,16.40
2022-09-16T17:45:09.274Z,16.30
2022-09-16T17:48:17.706Z,16.30
2022-09-16T17:51:28.873Z,16.30
2022-09-16T17:54:37.300Z,16.20
2022-09-16T17:57:47.129Z,16.20
2022-09-16T18:00:55.564Z,16.10
2022-09-16T18:04:04.329Z,16.10
2022-09-16T18:07:12.892Z,16.10
2022-09-16T18:10:23.409Z,16.10
2022-09-16T18:13:33.597Z,16.20
2022-09-16T18:16:42.565Z,16.20
2022-09-16T18:19:51.289Z,16.20
2022-09-16T18:22:59.763Z,16.20
2022-09-16T18:26:09.622Z,16.20
2022-09-16T18:29:19.788Z,16.10
2022-09-16T18:32:29.353Z,16.10
2022-09-16T18:35:38.357Z,16.10
2022-09-16T18:38:46.909Z,16.10
2022-09-16T18:41:56.204Z,16.10
2022-09-16T18:45:07.043Z,16.10
2022-09-16T18:48:15.477Z,16.10
2022-09-16T18:51:28.298Z,16.10
2022-09-16T18:54:36.864Z,16.10
2022-09-16T18:57:45.242Z,16.10
2022-09-16T19:00:55.196Z,16.10
2022-09-16T19:04:06.033Z,16.10
2022-09-16T19:07:17.276Z,16.10
2022-09-16T19:10:26.277Z,16.10
2022-09-16T19:13:35.025Z,16.10
2022-09-16T19:16:46.383Z,16.10
2022-09-16T19:19:55.333Z,16.00
2022-09-16T19:23:03.732Z,16.00
2022-09-16T19:26:13.045Z,16.00
2022-09-16T19:29:21.966Z,15.90
2022-09-16T19:32:31.799Z,15.80
2022-09-16T19:35:40.261Z,15.80
2022-09-16T19:38:50.012Z,15.80
2022-09-16T19:42:03.173Z,15.70
2022-09-16T19:45:11.683Z,15.60
2022-09-16T19:48:21.754Z,15.60
2022-09-16T19:51:30.221Z,15.60
2022-09-16T19:54:38.763Z,15.60
2022-09-16T19:57:47.276Z,15.60
2022-09-16T20:01:00.500Z,15.60
2022-09-16T20:04:10.806Z,15.60
2022-09-16T20:07:20.394Z,15.50
2022-09-16T20:10:29.035Z,15.50
2022-09-16T20:13:38.285Z,15.40
2022-09-16T20:16:46.972Z,15.40
2022-09-16T20:19:56.945Z,15.40
2022-09-16T20:23:05.587Z,15.30
2022-09-16T20:26:19.343Z,15.30
2022-09-16T20:29:27.978Z,15.20
2022-09-16T20:32:36.706Z,15.10
2022-09-16T20:35:46.579Z,15.00
2022-09-16T20:38:55.238Z,15.00
2022-09-16T20:42:03.745Z,15.00
2022-09-16T20:45:12.418Z,14.90
2022-09-16T20:48:20.995Z,14.80
2022-09-16T20:51:33.486Z,14.80
2022-09-16T20:54:41.925Z,14.80
2022-09-16T20:57:50.809Z,14.70
2022-09-16T21:01:05.651Z,14.60
2022-09-16T21:04:15.778Z,14.60
2022-09-16T21:07:25.597Z,14.60
2022-09-16T21:10:36.618Z,14.50
2022-09-16T21:13:46.723Z,14.40
2022-09-16T21:16:55.809Z,14.40
2022-09-16T21:20:04.702Z,14.40
2022-09-16T21:23:14.936Z,14.40
2022-09-16T21:26:25.067Z,14.30
2022-09-16T21:29:33.469Z,14.30
2022-09-16T21:32:43.784Z,14.20
2022-09-16T21:35:52.702Z,14.20
2022-09-16T21:39:03.206Z,14.20
2022-09-16T21:42:11.674Z,14.10
2022-09-16T21:45:20.102Z,14.10
2022-09-16T21:48:31.406Z,14.10
2022-09-16T21:51:39.826Z,14.00
2022-09-16T21:54:49.619Z,14.00
2022-09-16T21:57:57.997Z,13.80
2022-09-16T22:01:08.129Z,13.80
2022-09-16T22:04:19.260Z,13.80
2022-09-16T22:07:27.698Z,13.80
2022-09-16T22:10:39.161Z,13.70
2022-09-16T22:13:47.700Z,13.70
2022-09-16T22:16:56.126Z,13.60
2022-09-16T22:20:04.741Z,13.60
2022-09-16T22:23:13.222Z,13.50
2022-09-16T22:26:24.786Z,13.50
2022-09-16T22:29:33.183Z,13.50
2022-09-16T22:32:41.636Z,13.50
2022-09-16T22:35:50.129Z,13.50
2022-09-16T22:39:00.810Z,13.50
2022-09-16T22:42:10.681Z,13.40
2022-09-16T22:45:19.108Z,13.30
2022-09-16T22:48:27.492Z,13.30
2022-09-16T22:51:36.084Z,13.30
2022-09-16T22:54:44.517Z,13.30
2022-09-16T22:57:54.436Z,13.30
2022-09-16T23:01:04.349Z,13.30
2022-09-16T23:04:13.039Z,13.20
2022-09-16T23:07:21.485Z,13.10
2022-09-16T23:10:30.156Z,13.10
2022-09-16T23:13:42.552Z,13.10
2022-09-16T23:16:50.984Z,13.00
2022-09-16T23:19:59.348Z,13.00
2022-09-16T23:23:07.834Z,13.00
2022-09-16T23:26:18.116Z,13.00
2022-09-16T23:29:27.962Z,13.10
2022-09-16T23:32:36.372Z,13.00
2022-09-16T23:35:48.840Z,12.90
2022-09-16T23:38:57.616Z,12.90
2022-09-16T23:42:06.619Z,12.70
2022-09-16T23:45:16.641Z,12.70
2022-09-16T23:48:25.077Z,12.60
2022-09-16T23:51:33.543Z,12.50
2022-09-16T23:54:41.917Z,12.40
2022-09-16T23:57:50.381Z,12.40
